Terminal Aerodrome Forecast
Issued by NWS

Home | Current Version | Previous Version | Text Only | Print | Product List | Glossary On
Versions: 1 2 3 4 5 6 7 8 9 10 11 12 13 14
781
FTPA31 PHFO 241720
TAFHJH
TAF
PHJH 241720Z 2418/2518 03009G14KT P6SM SCT040 BKN250
     FM242000 04015G24KT P6SM FEW025 SCT040 BKN250
     FM250600 05011KT P6SM FEW030 BKN250
      AMD NOT SKED AFT 250400=

USA.gov is the U.S. government's official web portal to all federal, state and local government web resources and services.